Flight Track Log - Related Links

Times and Time Zones

All times are in EDT time to prevent confusion due to time zone crossing. See the SWA499 flight status page for this flight to view local times or setup timezone preferences in your user account.

Time Position Orientation Groundspeed Altitude Reporting Facility
EDT Latitude Longitude Course Direction KTS MPH feet Rate Location/Type
Wed 02:44:22 PM 39.2833 -94.7000 194° South 154 177 1,500  Level Kansas City TRACON
Wed 02:45:28 PM 39.2333 -94.7167 194° South 203 234 4,300 2,951 Climbing Kansas City TRACON
Wed 02:46:24 PM 39.1836 -94.7147 178° South 235 270 7,500 3,310 Climbing Kansas City Center
Wed 02:47:24 PM 39.1878 -94.6275 86° East 268 308 10,700 3,194 Climbing Kansas City Center
Wed 02:48:28 PM 39.2242 -94.5044 69° East 334 384 14,100 3,216 Climbing Kansas City Center
Wed 02:49:29 PM 39.2586 -94.3864 69° East 364 419 17,400 3,122 Climbing Kansas City Center
Wed 02:50:31 PM 39.3028 -94.2369 69° East 399 459 20,500 2,634 Climbing Kansas City Center
Wed 02:51:32 PM 39.3439 -94.0964 69° East 437 503 22,800 1,756 Climbing Kansas City Center
Wed 02:52:34 PM 39.3911 -93.9211 71° East 462 532 24,100 1,667 Climbing Kansas City Center
Wed 02:53:38 PM 39.4133 -93.7494 80° East 490 564 26,300 2,112 Climbing Kansas City Center
Wed 02:54:39 PM 39.4361 -93.5689 81° East 511 588 28,500 1,951 Climbing Kansas City Center
Wed 02:55:41 PM 39.4589 -93.3814 81° East 527 606 30,300 1,707 Climbing Kansas City Center
Wed 02:56:42 PM 39.4825 -93.1911 81° East 539 620 32,000 2,064 Climbing Kansas City Center
Wed 02:57:46 PM 39.5081 -92.9514 82° East 561 646 34,600 2,274 Climbing Kansas City Center
Wed 02:58:46 PM 39.5300 -92.7539 82° East 564 649 36,700 1,736 Climbing Kansas City Center
Wed 02:59:47 PM 39.5494 -92.5656 82° East 548 631 38,100 1,296 Climbing Kansas City Center
Wed 03:00:51 PM 39.5619 -92.3747 85° East 541 623 39,400 1,333 Climbing Kansas City Center
Wed 03:01:53 PM 39.5739 -92.1842 85° East 539 620 40,900 780 Climbing Kansas City Center
Wed 03:02:54 PM 39.5894 -91.9578 85° East 536 617 41,000 48 Climbing Kansas City Center
Wed 03:03:57 PM 39.6025 -91.7669 85° East 537 618 41,000  Level Kansas City Center
Wed 03:04:59 PM 39.6133 -91.5794 86° East 534 615 41,000  Level Kansas City Center
Wed 03:06:00 PM 39.6233 -91.3900 86° East 533 613 41,000  Level Kansas City Center
Wed 03:07:01 PM 39.6353 -91.1944 85° East 534 615 41,000  Level Kansas City Center
Wed 03:08:05 PM 39.6467 -91.0028 86° East 533 613 41,000  Level Kansas City Center
Wed 03:09:06 PM 39.6600 -90.7714 86° East 534 615 41,000  Level Kansas City Center
Wed 03:10:07 PM 39.6692 -90.5806 86° East 531 611 41,000  Level Kansas City Center
Wed 03:11:10 PM 39.6792 -90.3906 86° East 529 609 41,000  Level Kansas City Center
Wed 03:12:12 PM 39.6889 -90.2000 86° East 528 608 41,000  Level Kansas City Center
Wed 03:13:15 PM 39.6981 -90.0086 86° East 530 610 41,000  Level Kansas City Center
Wed 03:14:15 PM 39.7069 -89.8178 86° East 529 609 41,000  Level Kansas City Center
Wed 03:15:19 PM 39.7164 -89.5975 87° East 531 611 41,000  Level Kansas City Center
Wed 03:16:19 PM 39.7258 -89.4061 86° East 532 612 41,000  Level Kansas City Center
Wed 03:17:23 PM 39.7339 -89.2133 87° East 536 617 41,000  Level Kansas City Center
Wed 03:18:24 PM 39.7411 -89.0200 87° East 537 618 41,000  Level Kansas City Center
Wed 03:19:24 PM 39.7486 -88.8258 87° East 539 620 41,000  Level Kansas City Center
Wed 03:20:26 PM 39.7561 -88.5925 88° East 540 621 41,000  Level Kansas City Center
Wed 03:21:30 PM 39.7647 -88.3964 87° East 543 625 41,000  Level Kansas City Center
Wed 03:22:31 PM 39.7717 -88.1983 87° East 548 631 41,000  Level Kansas City Center
Wed 03:22:56 PM 39.7731 -88.1006 89° East 548 631 41,000  Level Indianapolis Center
Wed 03:23:58 PM 39.7781 -87.9019 88° East 548 631 41,000  Level Indianapolis Center
Wed 03:25:00 PM 39.7844 -87.7039 88° East 547 629 41,000  Level Indianapolis Center
Wed 03:26:02 PM 39.7908 -87.5044 88° East 547 629 41,000  Level Indianapolis Center
Wed 03:27:04 PM 39.7958 -87.3056 88° East 547 629 41,000  Level Indianapolis Center
Wed 03:28:06 PM 39.7997 -87.1083 88° East 545 627 41,000  Level Indianapolis Center
Wed 03:29:08 PM 39.8039 -86.9128 88° East 542 624 41,000  Level Indianapolis Center
Wed 03:30:10 PM 39.8097 -86.6844 88° East 537 618 41,000  Level Indianapolis Center
Wed 03:31:11 PM 39.8128 -86.4875 89° East 541 623 41,000  Level Indianapolis Center
Wed 03:32:13 PM 39.8306 -86.2856 83° East 542 624 41,000  Level Indianapolis Center
Wed 03:33:15 PM 39.8731 -86.0956 74° East 539 620 41,000  Level Indianapolis Center
Wed 03:34:17 PM 39.9125 -85.9056 75° East 539 620 41,000  Level Indianapolis Center
Wed 03:35:19 PM 39.9522 -85.7156 75° East 539 620 41,000  Level Indianapolis Center
Wed 03:36:21 PM 39.9869 -85.5264 76° East 534 615 41,000  Level Indianapolis Center
Wed 03:37:23 PM 39.9917 -85.3325 88° East 531 611 41,000  Level Indianapolis Center
Wed 03:38:25 PM 39.9953 -85.1386 89° East 532 612 41,000  Level Indianapolis Center
Wed 03:39:27 PM 40.0019 -84.9131 88° East 531 611 41,000  Level Indianapolis Center
Wed 03:40:30 PM 40.0047 -84.7353 89° East 533 613 41,000  Level Indianapolis Center
Wed 03:41:32 PM 40.0081 -84.5392 89° East 535 616 41,000  Level Indianapolis Center
Wed 03:42:34 PM 40.0117 -84.3453 89° East 531 611 41,000  Level Indianapolis Center
Wed 03:43:36 PM 40.0153 -84.1492 89° East 534 615 41,000  Level Indianapolis Center
Wed 03:44:38 PM 40.0189 -83.9211 89° East 532 612 41,000  Level Indianapolis Center
Wed 03:45:40 PM 40.0203 -83.7250 89° East 532 612 41,000  Level Indianapolis Center
Wed 03:46:42 PM 40.0219 -83.5283 89° East 529 609 41,000  Level Indianapolis Center
Wed 03:47:44 PM 40.0244 -83.3297 89° East 532 612 41,000  Level Indianapolis Center
Wed 03:48:46 PM 40.0256 -83.1322 90° East 533 613 41,000  Level Indianapolis Center
Wed 03:49:48 PM 40.0264 -82.9383 90° East 529 609 41,000  Level Indianapolis Center
Wed 03:50:50 PM 40.0275 -82.7469 90° East 524 603 41,000  Level Indianapolis Center
Wed 03:51:52 PM 40.0278 -82.5564 90° East 521 600 41,000  Level Indianapolis Center
Wed 03:52:54 PM 40.0278 -82.3681 90° East 516 594 41,000  Level Indianapolis Center
Wed 03:53:56 PM 40.0269 -82.1792 90° East 516 594 41,000  Level Indianapolis Center
Wed 03:54:58 PM 40.0267 -81.9586 90° East 518 596 41,000  Level Indianapolis Center
Wed 03:56:00 PM 40.0261 -81.7683 90° East 519 597 41,000  Level Indianapolis Center
Wed 03:57:02 PM 40.0247 -81.5794 90° East 520 598 41,000  Level Indianapolis Center
Wed 03:58:04 PM 40.0228 -81.3886 91° East 521 600 41,000  Level Indianapolis Center
Wed 03:59:06 PM 40.0217 -81.2031 90° East 515 593 41,000  Level Indianapolis Center
Wed 04:00:02 PM 40.0225 -81.0086 90° East 513 590 41,000  Level Cleveland Center
Wed 04:01:02 PM 40.0169 -80.8217 92° East 513 590 41,000 -850 Level Cleveland Center
Wed 04:02:02 PM 39.9858 -80.6453 103° East 506 582 39,300 -1,000 Descending Cleveland Center
Wed 04:03:02 PM 39.9503 -80.4775 105° East 496 571 39,000 -350 Descending Cleveland Center
Wed 04:04:02 PM 39.9167 -80.3017 104° East 491 565 38,600 -1,000 Descending Cleveland Center
Wed 04:05:02 PM 39.8828 -80.1367 105° East 486 559 37,000 -1,350 Descending Cleveland Center
Wed 04:06:02 PM 39.8489 -79.9800 106° East 465 535 35,900 -950 Descending Cleveland Center
Wed 04:07:02 PM 39.8167 -79.8236 105° East 447 514 35,100 -1,400 Descending Cleveland Center
Wed 04:08:02 PM 39.7842 -79.6619 105° East 447 514 33,100 -2,150 Descending Cleveland Center
Wed 04:09:02 PM 39.7536 -79.5164 105° East 459 528 30,800 -2,200 Descending Cleveland Center
Wed 04:10:02 PM 39.7208 -79.3606 105° East 452 520 28,700 -2,200 Descending Cleveland Center
Wed 04:11:02 PM 39.6900 -79.2072 105° East 446 513 26,400 -2,154 Descending Cleveland Center
Wed 04:11:20 PM 39.6781 -79.1478 105° East 457 526 25,900 -1,077 Descending Washington Center
Wed 04:12:20 PM 39.6483 -79.0144 106° East 431 496 25,000 -450 Descending Washington Center
Wed 04:13:20 PM 39.6072 -78.8481 108° East 433 498 25,000 -600 Level Washington Center
Wed 04:14:20 PM 39.5758 -78.6986 105° East 428 493 23,800 -1,750 Descending Washington Center
Wed 04:15:20 PM 39.5481 -78.5547 104° East 421 484 21,500 -2,250 Descending Washington Center
Wed 04:16:20 PM 39.5119 -78.4133 108° East 421 484 19,300 -2,250 Descending Washington Center
Wed 04:17:20 PM 39.4817 -78.2722 105° East 416 479 17,000 -2,150 Descending Washington Center
Wed 04:18:20 PM 39.4494 -78.1342 107° East 404 465 15,000 -1,000 Descending Washington Center
Wed 04:19:20 PM 39.4228 -78.0094 105° East 382 440 15,000  Level Washington Center
Wed 04:20:20 PM 39.4233 -77.8725 90° East 371 427 15,000  Level Washington Center
Wed 04:21:20 PM 39.4300 -77.7356 86° East 376 433 15,000 -600 Level Washington Center
Wed 04:22:20 PM 39.4364 -77.6014 86° East 376 433 13,800 -1,450 Descending Washington Center
Wed 04:23:20 PM 39.4408 -77.4672 88° East 376 433 12,100 -1,474 Descending Washington Center
Wed 04:24:14 PM 39.4500 -77.3500 84° East 365 420 11,000 -632 Descending Potomac TRACON
Wed 04:25:14 PM 39.4667 -77.2333 79° East 352 405 10,900 -800 Descending Potomac TRACON
Wed 04:26:14 PM 39.5000 -77.1000 72° East 347 399 9,400 -1,400 Descending Potomac TRACON
Wed 04:27:14 PM 39.5167 -76.9833 79° East 328 377 8,100 -1,500 Descending Potomac TRACON
Wed 04:28:14 PM 39.5333 -76.8667 79° East 328 377 6,400 -1,250 Descending Potomac TRACON
Wed 04:29:14 PM 39.4833 -76.8000 134° Southeast 282 325 5,600 -1,158 Descending Potomac TRACON
Wed 04:30:08 PM 39.4167 -76.7833 169° South 239 275 4,200 -1,316 Descending Potomac TRACON
Wed 04:31:08 PM 39.3667 -76.8000 194° South 223 257 3,100 -600 Descending Potomac TRACON
Wed 04:32:08 PM 39.3000 -76.8167 191° South 207 238 3,000 -350 Descending Potomac TRACON
Wed 04:33:08 PM 39.2500 -76.8333 194° South 196 226 2,400 -496 Descending Potomac TRACON
Wed 04:34:09 PM 39.2000 -76.8167 166° South 194 223 2,000 -545 Descending Potomac TRACON
Wed 04:35:09 PM 39.1833 -76.7667 113° Southeast 182 209 1,300 -700 Descending Potomac TRACON
Wed 04:36:09 PM 39.1833 -76.7167 90° East 133 153 600 -700 Descending Potomac TRACON
Wed 04:38:00 PM 39.1667 -76.6667 142° Southeast  Level FlightAware Approximate
Wed 04:45:00 PM 39.1754 -76.6683 142° Southeast  Level Estimated
Wed 04:46:00 PM 39.1754 -76.6683 142° Southeast  Level Estimated
Wed 04:47:00 PM 39.1754 -76.6683 142° Southeast  Level Estimated

Login

Don't have an account? Register now (free) for customized features, flight alerts, and more!